Time;durP1;ratioP1;P1;durP2;ratioP2;P2;SDS_P1;SDS_P2;PMS_P1;PMS_P2;Temp;Humidity;BMP_temperature;BMP_pressure;BME280_temperature;BME280_humidity;BME280_pressure;Samples;Min_cycle;Max_cycle;Signal;HPM_P1;HPM_P2
2023/08/02 00:00:57;;;;;;;6.50;6.07;;;16.60;99.90;;;;;;5052841;28;20195;-78
2023/08/02 00:03:25;;;;;;;6.43;6.03;;;16.60;99.90;;;;;;5053226;28;20688;-78
2023/08/02 00:05:53;;;;;;;6.23;5.83;;;16.60;99.90;;;;;;5052944;28;20705;-78
2023/08/02 00:08:20;;;;;;;6.40;6.00;;;16.60;99.90;;;;;;5065186;28;20658;-77
2023/08/02 00:10:47;;;;;;;3.33;2.70;;;16.70;99.90;;;;;;5051634;28;20199;-78
2023/08/02 00:13:14;;;;;;;6.30;5.80;;;16.60;99.90;;;;;;5052621;28;20226;-78
2023/08/02 00:15:41;;;;;;;6.70;6.20;;;16.70;99.90;;;;;;5051707;28;20222;-78
2023/08/02 00:18:09;;;;;;;6.17;5.60;;;16.70;99.90;;;;;;5053223;28;20203;-78
2023/08/02 00:20:39;;;;;;;6.43;6.00;;;16.60;99.90;;;;;;5064588;28;20188;-78
2023/08/02 00:23:06;;;;;;;6.43;5.93;;;16.60;99.90;;;;;;5051345;28;20198;-78
2023/08/02 00:25:33;;;;;;;6.63;5.93;;;16.50;99.90;;;;;;5059826;28;20221;-78
2023/08/02 00:28:00;;;;;;;5.93;5.53;;;16.50;99.90;;;;;;5058867;28;20252;-78
2023/08/02 00:30:29;;;;;;;6.30;5.73;;;16.40;99.90;;;;;;5051012;28;20252;-78
2023/08/02 00:32:56;;;;;;;5.80;5.40;;;16.40;99.90;;;;;;5051319;28;20237;-78
2023/08/02 00:35:23;;;;;;;6.60;6.10;;;16.30;99.90;;;;;;5051397;28;20225;-78
2023/08/02 00:37:51;;;;;;;6.07;5.57;;;16.30;99.90;;;;;;5054843;28;20187;-78
2023/08/02 00:40:18;;;;;;;6.00;5.60;;;16.30;99.90;;;;;;5052251;28;20194;-77
2023/08/02 00:42:45;;;;;;;5.53;5.23;;;16.30;99.90;;;;;;5051359;28;20187;-78
2023/08/02 00:45:13;;;;;;;5.83;5.43;;;16.30;99.90;;;;;;5053745;28;20238;-77
2023/08/02 00:47:40;;;;;;;6.10;5.60;;;16.30;99.90;;;;;;5058356;28;20199;-78
2023/08/02 00:50:08;;;;;;;6.17;5.67;;;16.20;99.90;;;;;;5051168;28;20194;-78
2023/08/02 00:52:35;;;;;;;5.80;5.40;;;16.20;99.90;;;;;;5051061;28;20214;-78
2023/08/02 00:55:03;;;;;;;5.93;5.53;;;16.10;99.90;;;;;;5050634;28;20236;-78
2023/08/02 00:57:30;;;;;;;6.10;5.67;;;16.10;99.90;;;;;;5051761;28;20200;-78
2023/08/02 00:59:57;;;;;;;5.90;5.53;;;16.10;99.90;;;;;;5051639;28;20212;-78
2023/08/02 01:02:24;;;;;;;6.40;5.90;;;16.00;99.90;;;;;;5066790;28;20191;-78
2023/08/02 01:04:51;;;;;;;6.20;5.70;;;16.00;99.90;;;;;;5063399;28;20214;-78
2023/08/02 01:07:24;;;;;;;5.90;5.50;;;16.00;99.90;;;;;;5057281;28;20203;-78
2023/08/02 01:09:57;;;;;;;5.97;5.57;;;15.90;99.90;;;;;;5050795;28;20206;-78
2023/08/02 01:12:27;;;;;;;6.43;5.93;;;15.90;99.90;;;;;;5054607;28;20222;-78
2023/08/02 01:14:58;;;;;;;6.20;5.70;;;15.90;99.90;;;;;;5050770;28;20272;-78
2023/08/02 01:17:26;;;;;;;6.07;5.70;;;15.90;99.90;;;;;;5058844;28;20203;-78
2023/08/02 01:19:53;;;;;;;6.10;5.70;;;15.90;99.90;;;;;;5050901;28;20693;-78
2023/08/02 01:22:21;;;;;;;6.10;5.63;;;15.90;99.90;;;;;;5050854;28;20200;-77
2023/08/02 01:24:48;;;;;;;6.33;5.90;;;15.80;99.90;;;;;;5050777;28;20217;-77
2023/08/02 01:27:20;;;;;;;6.53;6.10;;;15.80;99.90;;;;;;5052244;28;20198;-78
2023/08/02 01:29:50;;;;;;;6.30;5.90;;;15.80;99.90;;;;;;5051351;28;20196;-78
2023/08/02 01:32:21;;;;;;;6.30;5.80;;;15.90;99.90;;;;;;5053106;28;20238;-78
2023/08/02 01:34:49;;;;;;;6.20;5.80;;;15.90;99.90;;;;;;5054789;28;20279;-77
2023/08/02 01:37:16;;;;;;;6.23;5.83;;;15.80;99.90;;;;;;5061176;28;20302;-78
2023/08/02 01:39:44;;;;;;;6.60;6.00;;;15.80;99.90;;;;;;5054421;28;20556;-78
2023/08/02 01:42:12;;;;;;;6.27;5.77;;;15.80;99.90;;;;;;5054660;28;20205;-78
2023/08/02 01:44:39;;;;;;;6.70;6.10;;;15.80;99.90;;;;;;5054365;28;20663;-78
2023/08/02 01:47:06;;;;;;;6.33;5.83;;;15.70;99.90;;;;;;5053771;28;20191;-77
2023/08/02 01:49:33;;;;;;;6.57;6.07;;;15.70;99.90;;;;;;5054182;28;20615;-77
2023/08/02 01:52:00;;;;;;;8.03;7.43;;;15.70;99.90;;;;;;5054068;28;20214;-78
2023/08/02 01:54:26;;;;;;;6.90;6.40;;;15.70;99.90;;;;;;5053983;28;20221;-77
2023/08/02 01:56:55;;;;;;;6.57;6.00;;;15.60;99.90;;;;;;5058319;28;20199;-77
2023/08/02 01:59:21;;;;;;;6.50;6.00;;;15.50;99.90;;;;;;5056665;28;20209;-78
2023/08/02 02:01:48;;;;;;;6.90;6.40;;;15.50;99.90;;;;;;5053751;28;20193;-77
2023/08/02 02:04:15;;;;;;;6.37;5.93;;;15.50;99.90;;;;;;5053436;28;20282;-77
2023/08/02 02:06:42;;;;;;;7.27;6.67;;;15.40;99.90;;;;;;5057910;28;20203;-77
2023/08/02 02:09:09;;;;;;;6.50;6.00;;;15.40;99.90;;;;;;5058261;28;20655;-77
2023/08/02 02:11:36;;;;;;;8.73;6.60;;;15.40;99.90;;;;;;5054609;28;20246;-77
2023/08/02 02:14:04;;;;;;;6.77;6.20;;;15.40;99.90;;;;;;5053499;28;20712;-78
2023/08/02 02:16:31;;;;;;;8.53;7.33;;;15.50;99.90;;;;;;5061557;28;20199;-77
2023/08/02 02:18:57;;;;;;;7.50;6.90;;;15.50;99.90;;;;;;5054000;28;20205;-78
2023/08/02 02:21:24;;;;;;;7.97;7.27;;;15.50;99.90;;;;;;5053284;28;20206;-78
2023/08/02 02:23:51;;;;;;;7.83;7.10;;;15.50;99.90;;;;;;5053719;28;20224;-77
2023/08/02 02:26:19;;;;;;;8.07;7.37;;;15.50;99.90;;;;;;5055096;28;20198;-78
2023/08/02 02:28:45;;;;;;;8.17;7.40;;;15.50;99.90;;;;;;5053716;28;20232;-77
2023/08/02 02:31:14;;;;;;;8.10;7.40;;;15.40;99.90;;;;;;5057323;28;20200;-78
2023/08/02 02:33:40;;;;;;;7.53;7.03;;;15.50;99.90;;;;;;5053475;28;20593;-78
2023/08/02 02:36:07;;;;;;;7.90;7.30;;;15.40;99.90;;;;;;5066825;28;20210;-77
2023/08/02 02:38:34;;;;;;;7.83;7.23;;;15.40;99.90;;;;;;5063192;28;20210;-78
2023/08/02 02:41:01;;;;;;;7.67;7.13;;;15.40;99.90;;;;;;5054408;28;20638;-80
2023/08/02 02:43:28;;;;;;;7.30;6.70;;;15.40;99.90;;;;;;5054441;28;20665;-77
2023/08/02 02:45:54;;;;;;;7.40;6.90;;;15.40;99.90;;;;;;5056357;28;20214;-79
2023/08/02 02:48:22;;;;;;;7.23;6.67;;;15.40;99.90;;;;;;5057374;28;20195;-77
2023/08/02 02:50:49;;;;;;;7.07;6.47;;;15.40;99.90;;;;;;5057989;28;20646;-77
2023/08/02 02:53:20;;;;;;;6.87;6.37;;;15.40;99.90;;;;;;5060538;28;20685;-80
2023/08/02 02:55:47;;;;;;;6.90;6.40;;;15.40;99.90;;;;;;5061738;28;20237;-79
2023/08/02 02:58:14;;;;;;;7.00;6.40;;;15.40;99.90;;;;;;5052367;28;20669;-79
2023/08/02 03:00:40;;;;;;;7.50;7.00;;;15.50;99.90;;;;;;5061781;28;20405;-80
2023/08/02 03:03:07;;;;;;;6.53;6.03;;;15.50;99.90;;;;;;5061447;28;20203;-80
2023/08/02 03:05:38;;;;;;;6.50;6.10;;;15.60;99.90;;;;;;5063419;28;20219;-79
2023/08/02 03:08:05;;;;;;;6.43;6.03;;;15.70;99.90;;;;;;5064711;28;20203;-79
2023/08/02 03:10:31;;;;;;;6.80;6.40;;;15.70;99.90;;;;;;5064363;28;20189;-79
2023/08/02 03:12:58;;;;;;;6.43;6.03;;;15.80;99.90;;;;;;5058672;28;20218;-80
2023/08/02 03:15:27;;;;;;;7.43;6.90;;;15.80;99.90;;;;;;5054938;28;20730;-80
2023/08/02 03:17:53;;;;;;;6.70;6.20;;;15.90;99.90;;;;;;5054452;28;20673;-80
2023/08/02 03:20:20;;;;;;;6.43;5.93;;;15.90;99.90;;;;;;5056433;28;20202;-80
2023/08/02 03:22:48;;;;;;;6.53;6.03;;;15.90;99.90;;;;;;5057014;28;20187;-80
2023/08/02 03:25:15;;;;;;;6.63;6.23;;;16.00;99.90;;;;;;5053075;28;20225;-79
2023/08/02 03:27:42;;;;;;;6.83;6.33;;;16.00;99.90;;;;;;5053029;28;20194;-80
2023/08/02 03:30:12;;;;;;;7.03;6.53;;;16.10;99.90;;;;;;5054067;28;20221;-82
2023/08/02 03:32:39;;;;;;;6.43;5.90;;;16.10;99.90;;;;;;5056166;28;20218;-78
2023/08/02 03:35:07;;;;;;;6.27;5.87;;;16.20;99.90;;;;;;5057991;28;20218;-78
2023/08/02 03:37:34;;;;;;;6.10;5.70;;;16.20;99.90;;;;;;5070448;28;20245;-79
2023/08/02 03:40:02;;;;;;;6.20;5.80;;;16.20;99.90;;;;;;5062591;28;20205;-78
2023/08/02 03:42:29;;;;;;;6.40;5.90;;;16.20;99.90;;;;;;5063715;28;20299;-78
2023/08/02 03:44:56;;;;;;;6.67;6.17;;;16.30;99.90;;;;;;5063384;28;20583;-78
2023/08/02 03:47:22;;;;;;;6.90;6.30;;;16.30;99.90;;;;;;5053515;28;20277;-77
2023/08/02 03:49:49;;;;;;;6.90;6.40;;;16.30;99.90;;;;;;5058042;28;20215;-77
2023/08/02 03:52:16;;;;;;;6.40;6.00;;;16.30;99.90;;;;;;5053895;28;20190;-78
2023/08/02 03:54:43;;;;;;;6.60;6.10;;;16.30;99.90;;;;;;5052521;28;20742;-78
2023/08/02 03:57:11;;;;;;;7.30;6.73;;;16.40;99.90;;;;;;5054262;28;20296;-78
2023/08/02 03:59:38;;;;;;;6.90;6.40;;;16.40;99.90;;;;;;5052741;28;20202;-78
2023/08/02 04:02:04;;;;;;;6.80;6.40;;;16.40;99.90;;;;;;5052798;28;20280;-78
2023/08/02 04:04:31;;;;;;;6.70;6.20;;;16.40;99.90;;;;;;5063609;28;20210;-78
2023/08/02 04:06:58;;;;;;;7.10;6.60;;;16.50;99.90;;;;;;5059657;28;20201;-78
2023/08/02 04:09:25;;;;;;;6.90;6.37;;;16.50;99.90;;;;;;5061465;28;20198;-77
2023/08/02 04:11:51;;;;;;;6.70;6.20;;;16.40;99.90;;;;;;5060090;28;20195;-78
2023/08/02 04:14:20;;;;;;;7.17;6.67;;;16.50;99.90;;;;;;5065512;28;20241;-78
2023/08/02 04:16:46;;;;;;;7.13;6.60;;;16.50;99.90;;;;;;5063136;28;20187;-78
2023/08/02 04:19:13;;;;;;;7.37;6.77;;;16.50;99.90;;;;;;5062341;28;20220;-77
2023/08/02 04:21:40;;;;;;;7.70;7.00;;;16.50;99.90;;;;;;5062052;28;20205;-78
2023/08/02 04:24:07;;;;;;;8.13;7.53;;;16.40;99.90;;;;;;5063634;28;20250;-78
2023/08/02 04:26:33;;;;;;;8.47;7.83;;;16.40;99.90;;;;;;5061166;28;20202;-77
2023/08/02 04:29:00;;;;;;;8.30;7.70;;;16.40;99.90;;;;;;5060931;28;20195;-78
2023/08/02 04:31:28;;;;;;;8.27;7.57;;;16.40;99.90;;;;;;5063882;28;20244;-78
2023/08/02 04:33:56;;;;;;;7.67;7.07;;;16.30;99.90;;;;;;5066066;28;20218;-78
2023/08/02 04:36:23;;;;;;;8.50;7.80;;;16.20;99.90;;;;;;5064497;28;20190;-77
2023/08/02 04:38:52;;;;;;;8.83;8.23;;;16.20;99.90;;;;;;5063819;28;20673;-78
2023/08/02 04:41:19;;;;;;;8.60;8.00;;;16.10;99.90;;;;;;5066144;28;20269;-78
2023/08/02 04:43:46;;;;;;;7.63;7.13;;;16.00;99.90;;;;;;5059692;28;20199;-77
2023/08/02 04:46:13;;;;;;;8.03;7.43;;;16.00;99.90;;;;;;5060883;28;20197;-78
2023/08/02 04:48:41;;;;;;;8.10;7.50;;;15.90;99.90;;;;;;5064159;28;20249;-78
2023/08/02 04:51:09;;;;;;;8.33;7.70;;;15.90;99.90;;;;;;5066975;28;20196;-78
2023/08/02 04:53:36;;;;;;;8.30;7.50;;;15.90;99.90;;;;;;5063583;28;20218;-78
2023/08/02 04:56:03;;;;;;;8.70;7.90;;;15.90;99.90;;;;;;5060323;28;20262;-78
2023/08/02 04:58:29;;;;;;;8.60;7.80;;;15.80;99.90;;;;;;5063678;28;20196;-77
2023/08/02 05:01:01;;;;;;;8.80;8.20;;;15.70;99.90;;;;;;5062608;28;20209;-78
2023/08/02 05:03:28;;;;;;;9.07;8.37;;;15.70;99.90;;;;;;5061058;28;20254;-78
2023/08/02 05:05:59;;;;;;;9.47;8.50;;;15.70;99.90;;;;;;5060668;28;20202;-78
2023/08/02 05:08:26;;;;;;;9.43;8.63;;;15.60;99.90;;;;;;5070476;28;20196;-78
2023/08/02 05:10:53;;;;;;;9.30;8.60;;;15.60;99.90;;;;;;5068658;28;20225;-78
2023/08/02 05:13:22;;;;;;;9.50;8.80;;;15.60;99.90;;;;;;5067858;28;20244;-78
2023/08/02 05:15:49;;;;;;;9.77;9.03;;;15.60;99.90;;;;;;5068954;28;20213;-78
2023/08/02 05:18:16;;;;;;;10.23;9.43;;;15.60;99.90;;;;;;5067286;28;20593;-78
2023/08/02 05:20:43;;;;;;;10.53;9.63;;;15.60;99.90;;;;;;5063470;28;20222;-78
2023/08/02 05:23:11;;;;;;;10.80;9.97;;;15.60;99.90;;;;;;5071800;28;20194;-77
2023/08/02 05:25:39;;;;;;;11.27;10.27;;;15.60;99.90;;;;;;5067949;28;20625;-78
2023/08/02 05:28:06;;;;;;;11.17;10.30;;;15.50;99.90;;;;;;5062463;28;20198;-77
2023/08/02 05:30:33;;;;;;;11.23;10.43;;;15.50;99.90;;;;;;5068258;28;20190;-77
2023/08/02 05:33:00;;;;;;;11.30;10.43;;;15.50;99.90;;;;;;5069488;28;20253;-78
2023/08/02 05:35:26;;;;;;;11.13;10.27;;;15.40;99.90;;;;;;5066729;28;20293;-78
2023/08/02 05:37:54;;;;;;;11.33;10.50;;;15.50;99.90;;;;;;5066756;28;20235;-77
2023/08/02 05:40:22;;;;;;;11.33;10.43;;;15.40;99.90;;;;;;5066020;28;20253;-77
2023/08/02 05:42:49;;;;;;;12.40;11.20;;;15.40;99.90;;;;;;5063870;28;20257;-78
2023/08/02 05:45:16;;;;;;;12.40;11.30;;;15.40;99.90;;;;;;5072184;28;20246;-77
2023/08/02 05:47:43;;;;;;;11.63;10.73;;;15.40;99.90;;;;;;5069588;28;20580;-77
2023/08/02 05:50:10;;;;;;;12.17;11.17;;;15.40;99.90;;;;;;5070649;28;20196;-78
2023/08/02 05:52:37;;;;;;;12.13;11.23;;;15.50;99.90;;;;;;5067534;28;20212;-77
2023/08/02 05:55:04;;;;;;;12.73;11.63;;;15.50;99.90;;;;;;5066535;28;20632;-77
2023/08/02 05:57:32;;;;;;;12.17;11.17;;;15.50;99.90;;;;;;5065008;28;20756;-77
2023/08/02 05:59:59;;;;;;;12.83;11.83;;;15.60;99.90;;;;;;5057606;28;20257;-77
2023/08/02 06:02:26;;;;;;;13.20;12.03;;;15.60;99.90;;;;;;5070836;28;20233;-77
2023/08/02 06:04:52;;;;;;;13.80;12.60;;;15.60;99.90;;;;;;5066935;28;20624;-78
2023/08/02 06:07:19;;;;;;;13.30;12.20;;;15.70;99.90;;;;;;5061286;28;20687;-77
2023/08/02 06:09:48;;;;;;;13.80;12.70;;;15.70;99.90;;;;;;5068148;28;21698;-77
2023/08/02 06:12:14;;;;;;;13.10;12.10;;;15.70;99.90;;;;;;5066398;28;20204;-78
2023/08/02 06:14:42;;;;;;;12.27;11.33;;;15.80;99.90;;;;;;5063135;28;20258;-77
2023/08/02 06:17:09;;;;;;;12.60;11.60;;;15.90;99.90;;;;;;5065655;28;20229;-77
2023/08/02 06:19:36;;;;;;;12.70;11.60;;;15.90;99.90;;;;;;5068524;28;20265;-78
2023/08/02 06:22:03;;;;;;;12.07;11.10;;;16.00;99.90;;;;;;5061553;28;20202;-78
2023/08/02 06:24:30;;;;;;;11.93;11.03;;;16.00;99.90;;;;;;5066965;28;20820;-77
2023/08/02 06:26:57;;;;;;;12.77;11.77;;;16.10;99.90;;;;;;5065040;28;20206;-78
2023/08/02 06:29:23;;;;;;;13.20;12.13;;;16.20;99.90;;;;;;5072099;28;20207;-78
2023/08/02 06:31:52;;;;;;;13.50;12.50;;;16.30;99.90;;;;;;5070144;28;20246;-77
2023/08/02 06:34:18;;;;;;;13.33;12.30;;;16.50;99.90;;;;;;5069219;28;20240;-77
2023/08/02 06:36:45;;;;;;;13.43;12.33;;;16.80;99.90;;;;;;5058202;28;20568;-77
2023/08/02 06:39:12;;;;;;;7.77;6.80;;;17.10;99.90;;;;;;5058939;28;20739;-76
2023/08/02 06:41:39;;;;;;;9.63;8.83;;;17.30;99.90;;;;;;5062808;28;20199;-78
2023/08/02 06:44:07;;;;;;;12.80;11.80;;;17.40;99.90;;;;;;5054127;28;20246;-78
2023/08/02 06:46:34;;;;;;;12.93;11.93;;;17.50;99.90;;;;;;5056205;28;20203;-77
2023/08/02 06:49:03;;;;;;;13.07;12.07;;;17.40;99.90;;;;;;5054679;28;20199;-77
2023/08/02 06:51:29;;;;;;;12.77;11.87;;;17.40;99.90;;;;;;5054518;28;20712;-79
2023/08/02 06:53:57;;;;;;;13.73;12.73;;;17.40;99.90;;;;;;5066254;28;20238;-75
2023/08/02 06:56:25;;;;;;;12.30;11.40;;;17.30;99.90;;;;;;5059798;28;20215;-76
2023/08/02 06:58:52;;;;;;;12.87;11.87;;;17.30;99.90;;;;;;5059882;28;20277;-76
2023/08/02 07:01:20;;;;;;;12.27;11.27;;;17.20;99.90;;;;;;5071193;28;20621;-76
2023/08/02 07:03:48;;;;;;;13.33;12.23;;;17.10;99.90;;;;;;5054424;28;20210;-77
2023/08/02 07:06:17;;;;;;;7.90;7.10;;;17.00;99.90;;;;;;5067750;28;20191;-78
2023/08/02 07:08:45;;;;;;;6.20;5.60;;;17.00;99.90;;;;;;5064788;28;20249;-77
2023/08/02 07:11:12;;;;;;;7.47;5.97;;;16.90;99.90;;;;;;5066861;28;20203;-78
2023/08/02 07:13:43;;;;;;;6.70;5.93;;;17.00;99.90;;;;;;5064277;28;20631;-78
2023/08/02 07:16:10;;;;;;;8.23;6.53;;;17.30;99.90;;;;;;5066388;28;20199;-78
2023/08/02 07:18:38;;;;;;;7.20;5.80;;;17.40;99.90;;;;;;5053805;28;20207;-78
2023/08/02 07:21:06;;;;;;;7.73;5.70;;;17.60;99.90;;;;;;5055366;28;20256;-77
2023/08/02 07:23:34;;;;;;;8.93;8.13;;;17.80;99.90;;;;;;5055396;28;20262;-77
2023/08/02 07:26:01;;;;;;;10.80;10.00;;;18.00;99.90;;;;;;5055387;28;20200;-78
2023/08/02 07:28:28;;;;;;;11.07;10.17;;;18.00;99.90;;;;;;5053770;28;20314;-78
2023/08/02 07:31:05;;;;;;;6.57;5.97;;;17.90;99.90;;;;;;5054170;28;20207;-78
2023/08/02 07:33:31;;;;;;;11.10;10.30;;;17.90;99.90;;;;;;5067252;28;20199;-78
2023/08/02 07:35:58;;;;;;;10.30;9.50;;;17.80;99.90;;;;;;5061897;28;20225;-80
2023/08/02 07:38:25;;;;;;;11.07;10.17;;;17.70;99.90;;;;;;5058117;28;20206;-79
2023/08/02 07:40:53;;;;;;;11.10;10.13;;;17.60;99.90;;;;;;5060141;28;20196;-77
2023/08/02 07:43:20;;;;;;;5.73;5.10;;;17.60;99.90;;;;;;5057263;28;20568;-78
2023/08/02 07:45:46;;;;;;;6.33;5.40;;;17.50;99.90;;;;;;5056914;28;20212;-79
2023/08/02 07:48:14;;;;;;;5.40;4.90;;;17.50;99.90;;;;;;5055667;28;20253;-81
2023/08/02 07:50:40;;;;;;;4.87;4.40;;;17.60;99.90;;;;;;5056977;28;20195;-81
2023/08/02 07:53:10;;;;;;;5.10;4.50;;;17.70;99.90;;;;;;5061893;28;20208;-80
2023/08/02 07:55:37;;;;;;;6.97;6.37;;;17.80;99.90;;;;;;5059645;28;20693;-81
2023/08/02 07:58:05;;;;;;;6.00;5.50;;;17.90;99.90;;;;;;5058876;28;20229;-79
2023/08/02 08:00:32;;;;;;;6.30;5.70;;;17.90;99.90;;;;;;5065149;28;20200;-80
2023/08/02 08:02:59;;;;;;;6.03;5.47;;;17.80;99.90;;;;;;5075118;28;20199;-81
2023/08/02 08:05:26;;;;;;;5.57;5.07;;;17.80;99.90;;;;;;5061047;28;20216;-82
2023/08/02 08:07:53;;;;;;;7.30;5.83;;;17.80;99.90;;;;;;5066141;28;20195;-82
2023/08/02 08:10:19;;;;;;;6.93;5.87;;;17.80;99.90;;;;;;5069357;28;20210;-78
2023/08/02 08:12:46;;;;;;;6.70;6.00;;;17.80;99.90;;;;;;5060343;28;20199;-82
2023/08/02 08:15:14;;;;;;;6.30;5.70;;;17.80;99.90;;;;;;5070074;28;20215;-80
2023/08/02 08:17:41;;;;;;;7.47;6.73;;;17.90;99.90;;;;;;5069295;28;20196;-81
2023/08/02 08:20:09;;;;;;;6.63;6.03;;;17.90;99.90;;;;;;5062380;28;20453;-83
2023/08/02 08:22:36;;;;;;;6.47;5.87;;;17.90;99.90;;;;;;5058893;28;20199;-83
2023/08/02 08:25:03;;;;;;;6.73;6.13;;;17.90;99.90;;;;;;5063646;28;20215;-82
2023/08/02 08:27:30;;;;;;;7.53;6.27;;;17.90;99.90;;;;;;5070458;28;20203;-84
2023/08/02 08:29:57;;;;;;;5.93;5.43;;;17.90;99.90;;;;;;5071611;28;20195;-83
2023/08/02 08:32:27;;;;;;;6.60;6.00;;;17.90;99.90;;;;;;5066386;28;20646;-83
2023/08/02 08:34:54;;;;;;;6.50;5.90;;;17.90;99.90;;;;;;5061973;28;20255;-83
2023/08/02 08:37:29;;;;;;;6.17;5.67;;;18.00;99.90;;;;;;5057331;28;20249;-82
2023/08/02 08:40:05;;;;;;;6.03;5.43;;;18.00;99.90;;;;;;5057617;28;20398;-83
2023/08/02 08:42:32;;;;;;;9.40;8.70;;;18.10;99.90;;;;;;5058033;28;20293;-82
2023/08/02 08:45:02;;;;;;;6.10;5.50;;;18.10;99.90;;;;;;5058553;28;20231;-82
2023/08/02 08:47:30;;;;;;;5.60;5.10;;;18.10;99.90;;;;;;5070324;28;20687;-82
2023/08/02 08:50:02;;;;;;;5.63;5.13;;;18.00;99.90;;;;;;5064464;28;20225;-82
2023/08/02 08:52:35;;;;;;;8.47;7.87;;;18.10;99.90;;;;;;5063124;28;20199;-82
2023/08/02 08:55:03;;;;;;;5.37;4.87;;;18.10;99.90;;;;;;5060527;28;20687;-81
2023/08/02 08:57:31;;;;;;;4.50;4.03;;;18.10;99.90;;;;;;5069907;28;20203;-82
2023/08/02 08:59:59;;;;;;;8.20;7.60;;;18.10;99.90;;;;;;5070362;28;20211;-82
2023/08/02 09:02:26;;;;;;;7.90;7.30;;;18.30;99.90;;;;;;5069884;28;20565;-82
2023/08/02 09:04:55;;;;;;;6.60;6.10;;;18.50;99.90;;;;;;5062643;28;20714;-82
2023/08/02 09:07:22;;;;;;;7.17;6.63;;;18.60;99.90;;;;;;5075002;28;20197;-82
2023/08/02 09:09:49;;;;;;;5.70;5.20;;;18.80;99.90;;;;;;5071643;28;20203;-82
2023/08/02 09:12:15;;;;;;;8.07;7.37;;;19.00;99.90;;;;;;5071302;28;20186;-82
2023/08/02 09:14:59;;;;;;;8.27;7.67;;;19.20;99.90;;;;;;5071619;28;20225;-82
2023/08/02 09:17:26;;;;;;;5.77;5.27;;;19.30;99.90;;;;;;5067706;28;20213;-82
2023/08/02 09:20:08;;;;;;;7.40;6.90;;;19.40;99.90;;;;;;5066408;28;20199;-81
2023/08/02 09:22:34;;;;;;;7.67;7.17;;;19.70;99.90;;;;;;5067132;28;20277;-82
2023/08/02 09:25:03;;;;;;;8.90;8.30;;;19.90;99.90;;;;;;5059197;28;20215;-83
2023/08/02 09:27:31;;;;;;;4.47;4.07;;;20.00;99.90;;;;;;5062297;28;20199;-83
2023/08/02 09:29:58;;;;;;;4.70;4.30;;;20.30;99.90;;;;;;5069451;28;20677;-83
2023/08/02 09:32:26;;;;;;;7.93;7.33;;;20.50;99.90;;;;;;5067169;28;20224;-82
2023/08/02 09:34:57;;;;;;;5.23;4.73;;;20.60;99.90;;;;;;5063144;28;20223;-82
2023/08/02 09:37:32;;;;;;;6.13;5.63;;;20.80;99.90;;;;;;5057891;28;20200;-83
2023/08/02 09:40:00;;;;;;;9.67;8.97;;;21.00;99.90;;;;;;5068056;28;20206;-83
2023/08/02 09:42:28;;;;;;;5.80;5.40;;;21.10;99.90;;;;;;5063658;28;20202;-82
2023/08/02 09:44:56;;;;;;;4.27;3.87;;;21.10;99.90;;;;;;5067438;28;20211;-80
2023/08/02 09:47:24;;;;;;;4.53;3.90;;;21.10;99.90;;;;;;5059997;28;20249;-80
2023/08/02 09:50:09;;;;;;;4.73;4.33;;;21.00;99.90;;;;;;5068258;28;20206;-80
2023/08/02 09:52:38;;;;;;;5.43;4.93;;;20.90;99.90;;;;;;5070696;28;20649;-82
2023/08/02 09:55:05;;;;;;;8.00;7.40;;;20.90;99.90;;;;;;5067740;28;20638;-82
2023/08/02 09:57:33;;;;;;;8.07;7.47;;;21.00;99.90;;;;;;5064281;28;20199;-82
2023/08/02 10:00:04;;;;;;;8.27;7.67;;;21.00;99.90;;;;;;5056699;28;20199;-82
2023/08/02 10:02:38;;;;;;;9.60;8.83;;;20.90;99.90;;;;;;5065461;28;20213;-84
2023/08/02 10:05:12;;;;;;;8.03;7.33;;;20.80;99.90;;;;;;5056556;28;20219;-83
2023/08/02 10:07:42;;;;;;;4.20;3.80;;;20.60;99.90;;;;;;5059573;28;20226;-82
2023/08/02 10:10:14;;;;;;;4.57;4.17;;;20.50;99.90;;;;;;5056686;28;20199;-82
2023/08/02 10:12:41;;;;;;;3.83;3.53;;;20.40;99.90;;;;;;5058032;28;20221;-82
2023/08/02 10:15:09;;;;;;;5.47;5.07;;;20.30;99.90;;;;;;5054877;28;20219;-82
2023/08/02 10:17:37;;;;;;;9.23;8.60;;;20.30;99.90;;;;;;5058278;28;20207;-83
2023/08/02 10:20:05;;;;;;;6.63;6.03;;;20.30;99.90;;;;;;5059411;28;20187;-82
2023/08/02 10:22:36;;;;;;;7.70;7.20;;;20.30;99.90;;;;;;5063067;28;20196;-83
2023/08/02 10:25:04;;;;;;;8.27;7.57;;;20.30;99.90;;;;;;5056980;28;20230;-82
2023/08/02 10:27:32;;;;;;;8.60;8.00;;;20.40;99.90;;;;;;5067612;28;20281;-83
2023/08/02 10:29:59;;;;;;;8.40;7.80;;;20.60;99.90;;;;;;5060816;28;20199;-82
2023/08/02 10:32:26;;;;;;;8.47;7.83;;;20.80;99.90;;;;;;5059801;28;20274;-83
2023/08/02 10:34:53;;;;;;;4.13;3.73;;;20.80;99.90;;;;;;5055584;28;20223;-81
2023/08/02 10:37:21;;;;;;;4.40;4.00;;;20.90;99.90;;;;;;5064186;28;20195;-82
2023/08/02 10:39:52;;;;;;;4.47;4.03;;;21.30;99.90;;;;;;5058257;28;20204;-82
2023/08/02 10:42:20;;;;;;;9.27;8.60;;;22.00;99.90;;;;;;5064141;28;20561;-82
2023/08/02 10:45:14;;;;;;;4.67;4.17;;;22.70;99.90;;;;;;5058143;28;20215;-82
2023/08/02 10:47:41;;;;;;;5.40;4.90;;;23.40;99.90;;;;;;5057701;28;20226;-83
2023/08/02 10:50:08;;;;;;;10.57;9.77;;;24.20;99.90;;;;;;5063078;28;20194;-82
2023/08/02 10:52:36;;;;;;;12.40;11.60;;;24.70;99.90;;;;;;5063987;28;20231;-82
2023/08/02 10:55:06;;;;;;;9.80;9.10;;;25.20;99.90;;;;;;5060895;28;20573;-84
2023/08/02 10:57:33;;;;;;;8.47;7.77;;;25.50;99.90;;;;;;5063988;28;20203;-83
2023/08/02 11:00:00;;;;;;;5.53;4.30;;;25.30;99.90;;;;;;5069468;28;20204;-82
2023/08/02 11:02:43;;;;;;;8.30;7.70;;;25.30;99.90;;;;;;5054996;28;20188;-83
2023/08/02 11:05:10;;;;;;;4.53;4.10;;;25.20;99.90;;;;;;5062266;28;20218;-82
2023/08/02 11:07:37;;;;;;;4.40;3.97;;;25.00;99.90;;;;;;5063974;28;20194;-83
2023/08/02 11:10:07;;;;;;;4.80;4.30;;;25.00;99.90;;;;;;5070805;28;20331;-80
2023/08/02 11:12:34;;;;;;;5.40;4.90;;;24.80;99.90;;;;;;5066570;28;20199;-81
2023/08/02 11:15:01;;;;;;;4.63;4.17;;;24.50;99.90;;;;;;5054282;28;20223;-83
2023/08/02 11:17:28;;;;;;;6.90;4.07;;;24.40;99.90;;;;;;5061984;28;20195;-82
2023/08/02 11:19:55;;;;;;;5.70;3.70;;;24.50;99.90;;;;;;5065699;28;20198;-82
2023/08/02 11:22:22;;;;;;;4.53;3.87;;;25.00;99.90;;;;;;5063839;28;20198;-82
2023/08/02 11:24:52;;;;;;;5.10;4.10;;;25.50;99.90;;;;;;5073034;28;20641;-82
2023/08/02 11:27:22;;;;;;;4.10;3.70;;;25.80;99.90;;;;;;5066428;28;20201;-83
2023/08/02 11:29:58;;;;;;;4.73;4.30;;;26.00;99.90;;;;;;5058583;28;20206;-83
2023/08/02 11:32:25;;;;;;;5.50;4.73;;;26.50;99.90;;;;;;5060592;28;20198;-83
2023/08/02 11:34:53;;;;;;;5.90;5.30;;;26.80;99.90;;;;;;5066707;28;20222;-81
2023/08/02 11:37:20;;;;;;;5.03;4.13;;;26.90;99.90;;;;;;5069408;28;20203;-81
2023/08/02 11:39:54;;;;;;;4.60;4.00;;;26.70;99.90;;;;;;5061295;28;20203;-81
2023/08/02 11:42:22;;;;;;;6.93;6.43;;;26.40;99.90;;;;;;5064050;28;20195;-81
2023/08/02 11:44:50;;;;;;;7.40;6.70;;;26.30;99.90;;;;;;5056580;28;20227;-81
2023/08/02 11:47:17;;;;;;;4.73;3.80;;;26.40;99.90;;;;;;5053487;28;20948;-80
2023/08/02 11:49:56;;;;;;;5.20;3.90;;;26.40;99.90;;;;;;5052601;28;20552;-81
2023/08/02 11:52:31;;;;;;;7.67;7.07;;;26.60;99.90;;;;;;5052031;28;20227;-81
2023/08/02 11:54:58;;;;;;;8.63;7.90;;;26.80;99.90;;;;;;5051298;28;20276;-81
2023/08/02 11:57:27;;;;;;;7.10;6.50;;;27.00;99.90;;;;;;5060498;28;20198;-81
2023/08/02 11:59:56;;;;;;;8.60;7.80;;;27.30;99.90;;;;;;5051753;28;20203;-77
2023/08/02 12:02:54;;;;;;;7.80;7.30;;;27.70;99.90;;;;;;5052515;28;20206;-84
2023/08/02 12:06:21;;;;;;;;;;;;;;;;;;;;;
2023/08/02 12:27:46;;;;;;;6.40;5.90;;;27.70;99.90;;;;;;4950368;28;20204;-79
2023/08/02 12:31:06;;;;;;;6.00;5.50;;;27.90;99.90;;;;;;4952518;28;20212;-81
2023/08/02 12:34:06;;;;;;;5.70;5.20;;;27.30;99.90;;;;;;4906640;29;20209;-82
2023/08/02 12:36:33;;;;;;;5.70;5.17;;;27.30;99.90;;;;;;4973035;28;20206;-82
2023/08/02 12:39:00;;;;;;;4.73;4.33;;;27.50;99.90;;;;;;4971912;28;20743;-82
2023/08/02 12:41:28;;;;;;;5.03;4.60;;;27.70;99.90;;;;;;4954738;28;20206;-81
2023/08/02 12:43:55;;;;;;;5.40;4.93;;;28.20;99.90;;;;;;4972702;28;20304;-82
2023/08/02 12:46:21;;;;;;;3.57;3.27;;;28.60;99.90;;;;;;4954915;28;20232;-82
2023/08/02 12:48:50;;;;;;;3.57;3.20;;;28.70;99.90;;;;;;4955535;28;20193;-81
2023/08/02 12:51:18;;;;;;;4.07;3.53;;;28.90;99.90;;;;;;4963705;28;20236;-79
2023/08/02 12:53:45;;;;;;;4.70;3.50;;;29.10;99.90;;;;;;4976913;28;20194;-79
2023/08/02 12:56:12;;;;;;;4.97;3.70;;;29.10;99.90;;;;;;4961484;28;20245;-79
2023/08/02 12:58:39;;;;;;;6.10;5.50;;;29.00;99.90;;;;;;4977845;28;20198;-77
2023/08/02 13:01:06;;;;;;;3.50;3.20;;;28.80;99.90;;;;;;4975765;28;20229;-77
2023/08/02 13:03:32;;;;;;;3.63;3.30;;;28.60;99.90;;;;;;4967182;28;20257;-76
2023/08/02 13:06:01;;;;;;;5.67;5.27;;;28.40;99.90;;;;;;4958422;28;20194;-76
2023/08/02 13:08:27;;;;;;;6.20;5.70;;;28.20;99.90;;;;;;4957954;28;20206;-76
2023/08/02 13:10:54;;;;;;;5.97;5.47;;;28.00;99.90;;;;;;4958947;28;20557;-77